PWSweather.com
Personal Weather Stations
Station Observations
KAZTUCSO57
Countryside Manor, Tucson, AZ 85742

Countryside ManorTucson, AZ 85742

Lat: 32.3692, Lon: -111.066

Elevation: 2307

Station Type: Davis VP Pro+ 6163

http://frogville.us

Latest ConditionsUpdated 9:40:01 AM MST Tuesday, Oct 21, 2014
Currently Today's Max Today's Min Today's Average
Temperature 76.1°F24.5°C 76.1°F24.5°C 61.3°F16.3°C 65.4°F18.6°C
Dew Point 53.8°F12.1°C 54.2°F12.3°C 51.4°F10.8°C 52.7°F11.5°C
Winds 1.5 mph E2.4 kmh E 2.5 mph E4.0 kmh E - 0.7 mph 1.1 kmh
Wind Gusts 3.0 mph4.8 kmh 4.0 mph6.4 kmh - -
Humidity 46% 70% 46% 64%
Pressure 29.93 in1013.5 mb 29.93 in1013.5 mb 29.88 in1011.9 mb -
Hour Temp Dew Point Humidity Winds Wind Gusts Pressure Precip Precip Rate Daily Precip Total
09:40 AM 76.1°F24.5°C 53.8°F12.1°C 46% 1.5 mph E2.4 kmh E 3.0 mph4.8 kmh 29.93 in1013.5 mb 0.00 in0.0 mm 0.00 in/hr0.0 mm/hr 0.00 in0.0 mm
09:30 AM 75.2°F24.0°C 54.2°F12.3°C 48% 0.5 mph E0.8 kmh E 1.0 mph1.6 kmh 29.93 in1013.5 mb 0.00 in0.0 mm 0.00 in/hr0.0 mm/hr 0.00 in0.0 mm
09:20 AM 74.2°F23.4°C 53.8°F12.1°C 49% 1.5 mph SE2.4 kmh SE 2.0 mph3.2 kmh 29.93 in1013.5 mb 0.00 in0.0 mm 0.00 in/hr0.0 mm/hr 0.00 in0.0 mm
09:10 AM 73.4°F23.0°C 54.2°F12.3°C 51% 1.4 mph E2.3 kmh E 3.0 mph4.8 kmh 29.93 in1013.5 mb 0.00 in0.0 mm 0.00 in/hr0.0 mm/hr 0.00 in0.0 mm
09:00 AM 72.6°F22.6°C 54.0°F12.2°C 52% 1.8 mph NE2.9 kmh NE 4.0 mph6.4 kmh 29.93 in1013.5 mb 0.00 in0.0 mm 0.00 in/hr0.0 mm/hr 0.00 in0.0 mm
08:50 AM 72.1°F22.3°C 54.0°F12.2°C 53% 2.4 mph ENE3.9 kmh ENE 3.0 mph4.8 kmh 29.93 in1013.5 mb 0.00 in0.0 mm 0.00 in/hr0.0 mm/hr 0.00 in0.0 mm
08:40 AM 71.6°F22.0°C 53.5°F11.9°C 53% 1.7 mph E2.7 kmh E 2.0 mph3.2 kmh 29.93 in1013.5 mb 0.00 in0.0 mm 0.00 in/hr0.0 mm/hr 0.00 in0.0 mm
08:30 AM 71.0°F21.7°C 53.5°F11.9°C 54% 2.5 mph E4.0 kmh E 4.0 mph6.4 kmh 29.93 in1013.5 mb 0.00 in0.0 mm 0.00 in/hr0.0 mm/hr 0.00 in0.0 mm
08:20 AM 70.0°F21.1°C 53.6°F12.0°C 56% 0.5 mph E0.8 kmh E 2.0 mph3.2 kmh 29.93 in1013.5 mb 0.00 in0.0 mm 0.00 in/hr0.0 mm/hr 0.00 in0.0 mm
08:10 AM 69.0°F20.6°C 53.6°F12.0°C 58% 1.2 mph E1.9 kmh E 3.0 mph4.8 kmh 29.92 in1013.2 mb 0.00 in0.0 mm 0.00 in/hr0.0 mm/hr 0.00 in0.0 mm
08:00 AM 67.8°F19.9°C 53.4°F11.9°C 60% 0.6 mph ESE1.0 kmh ESE 3.0 mph4.8 kmh 29.92 in1013.2 mb 0.00 in0.0 mm 0.00 in/hr0.0 mm/hr 0.00 in0.0 mm
07:50 AM 66.5°F19.2°C 53.5°F11.9°C 63% 0.8 mph E1.3 kmh E 2.0 mph3.2 kmh 29.92 in1013.2 mb 0.00 in0.0 mm 0.00 in/hr0.0 mm/hr 0.00 in0.0 mm
07:40 AM 65.0°F18.3°C 53.4°F11.9°C 66% 0.6 mph ENE1.0 kmh ENE 1.0 mph1.6 kmh 29.92 in1013.2 mb 0.00 in0.0 mm 0.00 in/hr0.0 mm/hr 0.00 in0.0 mm
07:30 AM 63.7°F17.6°C 52.9°F11.6°C 68% 0.2 mph E0.3 kmh E 1.0 mph1.6 kmh 29.92 in1013.2 mb 0.00 in0.0 mm 0.00 in/hr0.0 mm/hr 0.00 in0.0 mm
07:20 AM 62.7°F17.1°C 52.8°F11.6°C 70% 0.7 mph SE1.1 kmh SE 2.0 mph3.2 kmh 29.91 in1012.9 mb 0.00 in0.0 mm 0.00 in/hr0.0 mm/hr 0.00 in0.0 mm
07:10 AM 62.1°F16.7°C 52.2°F11.2°C 70% 0.1 mph E0.2 kmh E -- 29.91 in1012.9 mb 0.00 in0.0 mm 0.00 in/hr0.0 mm/hr 0.00 in0.0 mm
07:00 AM 62.2°F16.8°C 51.5°F10.8°C 68% 0.5 mph E0.8 kmh E 2.0 mph3.2 kmh 29.90 in1012.5 mb 0.00 in0.0 mm 0.00 in/hr0.0 mm/hr 0.00 in0.0 mm
06:50 AM 62.7°F17.1°C 51.6°F10.9°C 67% Calm Calm 1.0 mph1.6 kmh 29.90 in1012.5 mb 0.00 in0.0 mm 0.00 in/hr0.0 mm/hr 0.00 in0.0 mm
06:40 AM 63.0°F17.2°C 51.5°F10.8°C 66% Calm Calm -- 29.90 in1012.5 mb 0.00 in0.0 mm 0.00 in/hr0.0 mm/hr 0.00 in0.0 mm
06:30 AM 63.4°F17.4°C 51.8°F11.0°C 66% 0.2 mph E0.3 kmh E 1.0 mph1.6 kmh 29.90 in1012.5 mb 0.00 in0.0 mm 0.00 in/hr0.0 mm/hr 0.00 in0.0 mm
06:20 AM 63.6°F17.6°C 51.6°F10.9°C 65% 0.3 mph E0.5 kmh E 1.0 mph1.6 kmh 29.90 in1012.5 mb 0.00 in0.0 mm 0.00 in/hr0.0 mm/hr 0.00 in0.0 mm
06:10 AM 63.7°F17.6°C 51.7°F10.9°C 65% 0.6 mph E1.0 kmh E 2.0 mph3.2 kmh 29.89 in1012.2 mb 0.00 in0.0 mm 0.00 in/hr0.0 mm/hr 0.00 in0.0 mm
06:00 AM 63.6°F17.6°C 52.0°F11.1°C 66% 0.2 mph E0.3 kmh E 1.0 mph1.6 kmh 29.89 in1012.2 mb 0.00 in0.0 mm 0.00 in/hr0.0 mm/hr 0.00 in0.0 mm
05:50 AM 63.3°F17.4°C 51.7°F10.9°C 66% 0.3 mph E0.5 kmh E 2.0 mph3.2 kmh 29.89 in1012.2 mb 0.00 in0.0 mm 0.00 in/hr0.0 mm/hr 0.00 in0.0 mm
05:40 AM 62.8°F17.1°C 52.1°F11.2°C 68% 0.4 mph SE0.6 kmh SE 1.0 mph1.6 kmh 29.89 in1012.2 mb 0.00 in0.0 mm 0.00 in/hr0.0 mm/hr 0.00 in0.0 mm
05:30 AM 62.3°F16.8°C 52.0°F11.1°C 69% 0.6 mph E1.0 kmh E 2.0 mph3.2 kmh 29.89 in1012.2 mb 0.00 in0.0 mm 0.00 in/hr0.0 mm/hr 0.00 in0.0 mm
05:20 AM 62.0°F16.7°C 52.1°F11.2°C 70% 0.4 mph E0.6 kmh E -- 29.89 in1012.2 mb 0.00 in0.0 mm 0.00 in/hr0.0 mm/hr 0.00 in0.0 mm
05:10 AM 61.6°F16.4°C 51.7°F10.9°C 70% 0.2 mph E0.3 kmh E 1.0 mph1.6 kmh 29.89 in1012.2 mb 0.00 in0.0 mm 0.00 in/hr0.0 mm/hr 0.00 in0.0 mm
05:00 AM 61.5°F16.4°C 51.6°F10.9°C 70% 1.0 mph NE1.6 kmh NE 3.0 mph4.8 kmh 29.88 in1011.9 mb 0.00 in0.0 mm 0.00 in/hr0.0 mm/hr 0.00 in0.0 mm
04:50 AM 61.3°F16.3°C 51.4°F10.8°C 70% 0.3 mph E0.5 kmh E 2.0 mph3.2 kmh 29.88 in1011.9 mb 0.00 in0.0 mm 0.00 in/hr0.0 mm/hr 0.00 in0.0 mm
04:40 AM 61.3°F16.3°C 51.4°F10.8°C 70% 0.2 mph NNE0.3 kmh NNE 2.0 mph3.2 kmh 29.88 in1011.9 mb 0.00 in0.0 mm 0.00 in/hr0.0 mm/hr 0.00 in0.0 mm
04:30 AM 61.7°F16.5°C 51.4°F10.8°C 69% 1.2 mph NE1.9 kmh NE 2.0 mph3.2 kmh 29.88 in1011.9 mb 0.00 in0.0 mm 0.00 in/hr0.0 mm/hr 0.00 in0.0 mm
04:20 AM 62.1°F16.7°C 51.4°F10.8°C 68% 0.1 mph NNE0.2 kmh NNE 1.0 mph1.6 kmh 29.88 in1011.9 mb 0.00 in0.0 mm 0.00 in/hr0.0 mm/hr 0.00 in0.0 mm
04:10 AM 62.5°F16.9°C 51.4°F10.8°C 67% 1.3 mph ENE2.1 kmh ENE 2.0 mph3.2 kmh 29.88 in1011.9 mb 0.00 in0.0 mm 0.00 in/hr0.0 mm/hr 0.00 in0.0 mm
04:00 AM 63.0°F17.2°C 51.9°F11.1°C 67% 0.6 mph E1.0 kmh E 1.0 mph1.6 kmh 29.88 in1011.9 mb 0.00 in0.0 mm 0.00 in/hr0.0 mm/hr 0.00 in0.0 mm
03:50 AM 63.4°F17.4°C 51.8°F11.0°C 66% 0.4 mph E0.6 kmh E -- 29.88 in1011.9 mb 0.00 in0.0 mm 0.00 in/hr0.0 mm/hr 0.00 in0.0 mm
03:40 AM 63.6°F17.6°C 52.0°F11.1°C 66% 0.5 mph E0.8 kmh E 2.0 mph3.2 kmh 29.88 in1011.9 mb 0.00 in0.0 mm 0.00 in/hr0.0 mm/hr 0.00 in0.0 mm
03:30 AM 63.8°F17.7°C 52.2°F11.2°C 66% 1.0 mph SE1.6 kmh SE 2.0 mph3.2 kmh 29.88 in1011.9 mb 0.00 in0.0 mm 0.00 in/hr0.0 mm/hr 0.00 in0.0 mm
03:20 AM 63.8°F17.7°C 52.6°F11.4°C 67% 0.2 mph ENE0.3 kmh ENE 1.0 mph1.6 kmh 29.88 in1011.9 mb 0.00 in0.0 mm 0.00 in/hr0.0 mm/hr 0.00 in0.0 mm
03:10 AM 63.7°F17.6°C 52.5°F11.4°C 67% 1.1 mph E1.8 kmh E 2.0 mph3.2 kmh 29.88 in1011.9 mb 0.00 in0.0 mm 0.00 in/hr0.0 mm/hr 0.00 in0.0 mm
03:00 AM 63.8°F17.7°C 52.6°F11.4°C 67% 1.2 mph ENE1.9 kmh ENE 2.0 mph3.2 kmh 29.88 in1011.9 mb 0.00 in0.0 mm 0.00 in/hr0.0 mm/hr 0.00 in0.0 mm
02:50 AM 63.9°F17.7°C 52.7°F11.5°C 67% 0.6 mph NE1.0 kmh NE 1.0 mph1.6 kmh 29.88 in1011.9 mb 0.00 in0.0 mm 0.00 in/hr0.0 mm/hr 0.00 in0.0 mm
02:40 AM 63.8°F17.7°C 52.6°F11.4°C 67% 0.9 mph E1.4 kmh E 3.0 mph4.8 kmh 29.89 in1012.2 mb 0.00 in0.0 mm 0.00 in/hr0.0 mm/hr 0.00 in0.0 mm
02:30 AM 63.7°F17.6°C 52.1°F11.2°C 66% 1.0 mph E1.6 kmh E 2.0 mph3.2 kmh 29.89 in1012.2 mb 0.00 in0.0 mm 0.00 in/hr0.0 mm/hr 0.00 in0.0 mm
02:20 AM 64.0°F17.8°C 52.8°F11.6°C 67% Calm Calm 1.0 mph1.6 kmh 29.89 in1012.2 mb 0.00 in0.0 mm 0.00 in/hr0.0 mm/hr 0.00 in0.0 mm
02:10 AM 64.5°F18.1°C 52.9°F11.6°C 66% 1.3 mph NE2.1 kmh NE 2.0 mph3.2 kmh 29.89 in1012.2 mb 0.00 in0.0 mm 0.00 in/hr0.0 mm/hr 0.00 in0.0 mm
02:00 AM 65.0°F18.3°C 52.9°F11.6°C 65% 0.8 mph NE1.3 kmh NE 3.0 mph4.8 kmh 29.89 in1012.2 mb 0.00 in0.0 mm 0.00 in/hr0.0 mm/hr 0.00 in0.0 mm
01:50 AM 65.6°F18.7°C 53.1°F11.7°C 64% 0.6 mph NE1.0 kmh NE 1.0 mph1.6 kmh 29.89 in1012.2 mb 0.00 in0.0 mm 0.00 in/hr0.0 mm/hr 0.00 in0.0 mm
01:40 AM 66.2°F19.0°C 53.2°F11.8°C 63% 0.9 mph NE1.4 kmh NE 2.0 mph3.2 kmh 29.89 in1012.2 mb 0.00 in0.0 mm 0.00 in/hr0.0 mm/hr 0.00 in0.0 mm
01:30 AM 66.8°F19.3°C 52.9°F11.6°C 61% 0.1 mph NE0.2 kmh NE 1.0 mph1.6 kmh 29.89 in1012.2 mb 0.00 in0.0 mm 0.00 in/hr0.0 mm/hr 0.00 in0.0 mm
01:20 AM 66.6°F19.2°C 52.7°F11.5°C 61% 1.1 mph ESE1.8 kmh ESE 3.0 mph4.8 kmh 29.89 in1012.2 mb 0.00 in0.0 mm 0.00 in/hr0.0 mm/hr 0.00 in0.0 mm
01:10 AM 66.1°F18.9°C 52.7°F11.5°C 62% 0.9 mph SE1.4 kmh SE 2.0 mph3.2 kmh 29.89 in1012.2 mb 0.00 in0.0 mm 0.00 in/hr0.0 mm/hr 0.00 in0.0 mm
01:00 AM 65.6°F18.7°C 53.1°F11.7°C 64% 0.7 mph ESE1.1 kmh ESE 2.0 mph3.2 kmh 29.89 in1012.2 mb 0.00 in0.0 mm 0.00 in/hr0.0 mm/hr 0.00 in0.0 mm
12:50 AM 65.5°F18.6°C 53.4°F11.9°C 65% 0.3 mph NE0.5 kmh NE 2.0 mph3.2 kmh 29.89 in1012.2 mb 0.00 in0.0 mm 0.00 in/hr0.0 mm/hr 0.00 in0.0 mm
12:40 AM 65.6°F18.7°C 53.5°F11.9°C 65% 0.5 mph NE0.8 kmh NE 1.0 mph1.6 kmh 29.89 in1012.2 mb 0.00 in0.0 mm 0.00 in/hr0.0 mm/hr 0.00 in0.0 mm
12:30 AM 65.8°F18.8°C 53.7°F12.1°C 65% 0.2 mph NE0.3 kmh NE 1.0 mph1.6 kmh 29.89 in1012.2 mb 0.00 in0.0 mm 0.00 in/hr0.0 mm/hr 0.00 in0.0 mm
12:20 AM 66.1°F18.9°C 53.5°F11.9°C 64% 0.5 mph NE0.8 kmh NE 2.0 mph3.2 kmh 29.89 in1012.2 mb 0.00 in0.0 mm 0.00 in/hr0.0 mm/hr 0.00 in0.0 mm
12:10 AM 66.3°F19.1°C 53.4°F11.9°C 63% 1.2 mph NE1.9 kmh NE 3.0 mph4.8 kmh 29.90 in1012.5 mb 0.00 in0.0 mm 0.00 in/hr0.0 mm/hr 0.00 in0.0 mm
12:00 AM 66.6°F19.2°C 53.6°F12.0°C 63% 0.1 mph NE0.2 kmh NE -- 29.89 in1012.2 mb 0.00 in0.0 mm 0.00 in/hr0.0 mm/hr 0.00 in0.0 mm